^^

Meteo Aereoporti Centro-Italia

 

 
LIRZ - Perugia S.Egidio (208 m.)
Dati ricevuti: 23/07/2018 10:50
Molto nuvoloso
Molto nuvoloso
 Vento da NNW
Vento: NNW 11 km/h
TEMPERATURA: 22°C
P.to di Rugiada: 15°C
Umidità: 65%
Pressione: 1011 hPa
Nuvole: Molto nuvoloso
Visibilità: 10 km
Dettagli Nuvole: Qualche nuvola 914 m
Molto nuvoloso 1676 m
2018/07/23 08:50 LIRZ 230850Z 34006KT 9999 FEW030 BKN055 22/15 Q1011
 
LIPY - Ancona Falconara (12 m.)
Dati ricevuti: 23/07/2018 10:50
Rovesci nelle vicinanze, Molto Nuvoloso
Rovesci nelle vicinanze, Molto Nuvoloso
 Vento da SW
Vento: SW 6 km/h
TEMPERATURA: 20°C
P.to di Rugiada: 18°C
Umidità: 88%
Pressione: 1011 hPa
Condizioni generali: Rovesci nelle vicinanze
Nuvole: Molto nuvoloso
Visibilità: 10 km
Dettagli Nuvole: Qualche nuvola 762 m
Molto nuvoloso 1524 m
2018/07/23 08:50 LIPY 230850Z 23003KT 180V290 9999 VCSH FEW025TCU BKN050 20/18 Q1011 RETS
 
LIPR - Rimini Miramare (12 m.)
Dati ricevuti: 23/07/2018 11:15
Sereno
Sereno
 Vento da W
Vento: W 15 km/h
TEMPERATURA: 21°C
P.to di Rugiada: 20°C
Umidità: 94%
Pressione: 1011 hPa
Condizioni generali: Sereno
Visibilità: oltre 10 km
2018/07/23 09:15 LIPR 230915Z 27008KT CAVOK 21/20 Q1011
 
LIRF - Roma Fiumicino (2 m.)
Dati ricevuti: 23/07/2018 11:20
Sereno
Sereno
 Vento da N
Vento: N 11 km/h
TEMPERATURA: 25°C
P.to di Rugiada: 16°C
Umidità: 57%
Pressione: 1009 hPa
Condizioni generali: Sereno
Visibilità: oltre 10 km
2018/07/23 09:20 LIRF 230920Z 35006KT CAVOK 25/16 Q1009 NOSIG
 
LIRA - Roma Ciampino (129 m.)
Dati ricevuti: 23/07/2018 11:20
Sereno
Sereno
 Vento da N
Vento: N 11 km/h
TEMPERATURA: 23°C
P.to di Rugiada: 15°C
Umidità: 61%
Pressione: 1009 hPa
Condizioni generali: Sereno
Visibilità: oltre 10 km
2018/07/23 09:20 LIRA 230920Z 35006KT 320V020 CAVOK 23/15 Q1009
 
LIRU - Roma Urbe (17 m.)
Dati ricevuti: 23/07/2018 10:50
Qualche nuvola
Qualche nuvola
 Vento da N
Vento: N 9 km/h
TEMPERATURA: 25°C
P.to di Rugiada: 17°C
Umidità: 61%
Pressione: 1009 hPa
Nuvole: Qualche nuvola
Visibilità: 10 km
Dettagli Nuvole: Qualche nuvola 1219 m
2018/07/23 08:50 LIRU 230850Z 01005KT 340V040 9999 FEW040 25/17 Q1009
 
LIVF - Frontone (570 m.)
Dati ricevuti: 23/07/2018 10:55
Pioggia debole, Qualche nuvola
Pioggia debole, Qualche nuvola
 Vento da WSW
Vento: WSW 13 km/h
TEMPERATURA: 17°C
P.to di Rugiada: 15°C
Umidità: 88%
Pressione: 1011 hPa
Condizioni generali: Pioggia debole
Nuvole: Qualche nuvola
Visibilità: 10 km
Dettagli Nuvole: Qualche nuvola 1036 m
2018/07/23 08:55 LIVF 230855Z 24007KT 9999 -RA FEW034 17/15 Q1011 RMK BKN SCT070 MON S W CLD CIME VAL CLD SCT VIS MIN 9999
 
LIRQ - Firenze Peretola (40 m.)
Dati ricevuti: 23/07/2018 11:20
Poco nuvoloso
Poco nuvoloso
 Vento da NW
Vento: NW 7 km/h
TEMPERATURA: 26°C
P.to di Rugiada: 18°C
Umidità: 61%
Pressione: 1011 hPa
Nuvole: Poco nuvoloso
Visibilità: 10 km
Dettagli Nuvole: Qualche nuvola 914 m
Poco nuvoloso 2438 m
2018/07/23 09:20 LIRQ 230920Z 31004KT 290V360 9999 FEW030 SCT080 26/18 Q1011
 
LIBP - Pescara (10 m.)
Dati ricevuti: 23/07/2018 10:50
Qualche nuvola
Qualche nuvola
 Vento da NW
Vento: NW 13 km/h
TEMPERATURA: 25°C
P.to di Rugiada: 18°C
Umidità: 65%
Pressione: 1009 hPa
Nuvole: Qualche nuvola
Visibilità: 10 km
Dettagli Nuvole: Qualche nuvola 762 m
2018/07/23 08:50 LIBP 230850Z 32007KT 270V020 9999 FEW025 25/18 Q1009
 
LIRV - Viterbo (300 m.)
Dati ricevuti: 23/07/2018 10:55
Poco nuvoloso
Poco nuvoloso
 Vento da direzione variabile
Vento: direzione variabile 0 km/h
TEMPERATURA: 24°C
P.to di Rugiada: 17°C
Umidità: 65%
Pressione: 1011 hPa
Nuvole: Poco nuvoloso
Visibilità: 10 km
Dettagli Nuvole: Poco nuvoloso 762 m
2018/07/23 08:55 LIRV 230855Z /////KT 9999 SCT025 24/17 Q1011
 
LIQN - Rieti (389 m.)
Dati ricevuti: 23/07/2018 10:50
Qualche nuvola
Qualche nuvola
 Vento da direzione variabile
Vento: direzione variabile 6 km/h
TEMPERATURA: 23°C
P.to di Rugiada: 13°C
Umidità: 53%
Pressione: 1010 hPa
Nuvole: Qualche nuvola
Visibilità: 10 km
Dettagli Nuvole: Qualche nuvola 1463 m
2018/07/23 08:50 LIQN 230850Z VRB03KT 9999 FEW048 23/13 Q1010
 
LIRG - Guidonia -RM- (88 m.)
Dati ricevuti: 23/07/2018 10:55
Qualche nuvola
Qualche nuvola
 Vento da NE
Vento: NE 6 km/h
TEMPERATURA: 26°C
P.to di Rugiada: 19°C
Umidità: 65%
Pressione: 1009 hPa
Nuvole: Qualche nuvola
Visibilità: 10 km
Dettagli Nuvole: Qualche nuvola 1219 m
2018/07/23 08:55 LIRG 230855Z 05003KT 9999 FEW040 26/19 Q1009
 
LIRK - Terminillo -RI-(1874 m.)
Dati ricevuti: 08/06/2018 02:55
Dati non aggiornati

 Vento da direzione variabile
Vento: direzione variabile 0 km/h
2018/06/08 00:55 LIRK 080055Z AUTO /////KT //// ///// Q////
 
LIPK - Forlì (27 m.)
Dati ricevuti: 23/07/2018 10:50
Qualche nuvola
Qualche nuvola
 Vento da WSW
Vento: WSW 7 km/h
TEMPERATURA: 24°C
P.to di Rugiada: 19°C
Umidità: 74%
Pressione: 1011 hPa
Nuvole: Qualche nuvola
Visibilità: 10 km
Dettagli Nuvole: Qualche nuvola 610 m
Qualche nuvola 914 m
2018/07/23 08:50 LIPK 230850Z 24004KT 9999 FEW020CB FEW030 24/19 Q1011
 
LIRS - Grosseto (5 m.)
Dati ricevuti: 23/07/2018 10:55
Qualche nuvola
Qualche nuvola
 Vento da W
Vento: W 6 km/h
TEMPERATURA: 27°C
Indice di Calore: 28°C
P.to di Rugiada: 19°C
Umidità: 62%
Pressione: 1010 hPa
Nuvole: Qualche nuvola
Visibilità: 10 km
Dettagli Nuvole: Qualche nuvola 914 m
2018/07/23 08:55 LIRS 230855Z 27003KT 9999 FEW030 27/19 Q1010
 
LIRP - Pisa S.Giusto (2 m.)
Dati ricevuti: 23/07/2018 11:15
Qualche nuvola
Qualche nuvola
 Vento da WSW
Vento: WSW 7 km/h
TEMPERATURA: 25°C
P.to di Rugiada: 20°C
Umidità: 74%
Pressione: 1011 hPa
Nuvole: Qualche nuvola
Visibilità: 10 km
Dettagli Nuvole: Qualche nuvola 1219 m
2018/07/23 09:15 LIRP 230915Z 25004KT 9999 FEW040 25/20 Q1011 NOSIG